• Join FlightAware (Why Join?)
  • Login
  • US Flag 
01:59AM EDT


 

Airport Tracker/Info


-or-


 

Live Flight TrackerFlight Track Log ✈ UAL4550 ✈ 17-Apr-2013 ✈ KSAT - KIAH

Flight Track Log - Related Links

Times and Time Zones

All times are in EDT time to prevent confusion due to time zone crossing. See the UAL4550 flight status page for this flight to view local times or setup timezone preferences in your user account.

Time Position Orientation Groundspeed Altitude Reporting Facility
EDT Latitude Longitude Course Direction KTS MPH feet Rate Location/Type
03:52PM 29.5197 -98.4547 North 159 183 1,600  Level Houston Center
03:52PM 29.5031 -98.4328 131° Southeast 163 188 2,700 1,860 Climbing Houston Center
03:53PM 29.4894 -98.3933 112° Southeast 204 235 3,900 1,980 Climbing Houston Center
03:53PM 29.4953 -98.3711 73° East 240 276 4,700 1,740 Climbing Houston Center
03:54PM 29.5822 -98.2367 69° East  Level FlightAware Approximate
03:54PM 29.5158 -98.3208 65° Northeast 246 283 5,700  Level Houston Center
03:54PM 29.5261 -98.2953 65° Northeast 288 331 6,200 1,920 Climbing Houston Center
03:55PM 29.6044 -98.1615 77° East  Level FlightAware Approximate
03:55PM 29.5553 -98.2314 62° Northeast 293 337 7,700  Level Houston Center
03:55PM 29.5644 -98.2114 62° Northeast 304 350 8,100 1,620 Climbing Houston Center
03:56PM 29.6199 -98.0839 77° East  Level FlightAware Approximate
03:56PM 29.5931 -98.1458 63° Northeast 301 346 9,400  Level Houston Center
03:56PM 29.6025 -98.1250 62° Northeast 306 352 9,800 1,020 Climbing Houston Center
03:57PM 29.6425 -98.0167 North  Level FlightAware Approximate
03:57PM 29.6367 -98.0469 63° Northeast 322 371 10,500  Level Houston Center
03:58PM 29.6508 -97.9358 82° East 358 412 11,100 720 Climbing Houston Center
03:59PM 29.6544 -97.8339 88° East 364 419 12,100 900 Climbing Houston Center
04:00PM 29.6558 -97.6900 89° East 374 430 13,000 780 Climbing Houston Center
04:01PM 29.6517 -97.5656 92° East 387 445 13,800 960 Climbing Houston Center
04:02PM 29.6425 -97.4439 95° East 383 441 15,100 1,200 Climbing Houston Center
04:03PM 29.6342 -97.3250 95° East 375 432 16,400 1,260 Climbing Houston Center
04:04PM 29.6253 -97.2058 95° East 374 430 17,800 1,320 Climbing Houston Center
04:05PM 29.6164 -97.0850 95° East 377 434 19,200 1,260 Climbing Houston Center
04:06PM 29.6078 -96.9611 95° East 385 443 20,500 720 Climbing Houston Center
04:07PM 29.5953 -96.8053 95° East 404 465 20,800 -780 Climbing Houston Center
04:08PM 29.5844 -96.6647 95° East 428 493 19,000 -1,980 Descending Houston Center
04:09PM 29.5739 -96.5258 95° East 435 501 16,700 -2,280 Descending Houston Center
04:10PM 29.5628 -96.3958 96° East 414 476 14,300 -2,640 Descending Houston Center
04:11PM 29.5519 -96.2644 95° East 384 442 11,400 -2,100 Descending Houston Center
04:12PM 29.5539 -96.1564 89° East 366 421 10,000 -780 Descending Houston Center
04:13PM 29.6067 -96.0469 61° Northeast 340 391 9,900 -420 Descending Houston Center
04:14PM 29.6458 -95.9681 60° Northeast 268 308 9,200 -960 Descending Houston Center
04:15PM 29.7067 -95.9178 36° Northeast 280 322 8,000 -1,140 Descending Houston Center
04:16PM 29.7775 -95.8881 20° North 277 319 7,000 -540 Descending Houston Center
04:17PM 29.8444 -95.8369 34° Northeast 268 308 7,000 -420 Level Houston Center
04:18PM 29.8981 -95.7803 42° Northeast 264 304 6,200 -960 Descending Houston Center
04:19PM 29.9453 -95.7217 47° Northeast 246 283 5,100 -1,080 Descending Houston Center
04:21PM 29.9817 -95.6572 57° Northeast 236 272 4,000 -660 Descending Houston Center
04:22PM 29.9922 -95.5883 80° East 220 253 3,800 -660 Descending Houston Center
04:23PM 29.9919 -95.5136 90° East 216 249 2,700 -1,080 Descending Houston Center
04:24PM 29.9928 -95.4531 89° East 169 194 1,700 -1,020 Descending Houston Center